Time;durP1;ratioP1;P1;durP2;ratioP2;P2;SDS_P1;SDS_P2;PMS_P1;PMS_P2;Temp;Humidity;BMP_temperature;BMP_pressure;BME280_temperature;BME280_humidity;BME280_pressure;Samples;Min_cycle;Max_cycle;Signal;HPM_P1;HPM_P2
2022/05/13 00:01:22;;;;;;;16.00;8.32;;;12.70;99.90;;;;;;4975082;28;20057;-79
2022/05/13 00:03:48;;;;;;;16.75;7.85;;;12.00;99.90;;;;;;4974668;28;20051;-79
2022/05/13 00:06:13;;;;;;;16.63;7.85;;;11.60;99.90;;;;;;4974420;28;20057;-79
2022/05/13 00:08:39;;;;;;;17.20;7.13;;;11.60;99.90;;;;;;4941600;28;20058;-79
2022/05/13 00:11:08;;;;;;;13.65;7.68;;;12.10;99.90;;;;;;4974654;28;20049;-79
2022/05/13 00:13:34;;;;;;;13.95;7.43;;;11.80;99.90;;;;;;4974449;28;20047;-78
2022/05/13 00:16:00;;;;;;;16.63;8.13;;;11.60;99.90;;;;;;4974720;28;20054;-81
2022/05/13 00:18:26;;;;;;;;;;;11.80;99.90;;;;;;4975298;28;20097;-78
2022/05/13 00:20:52;;;;;;;18.70;7.85;;;11.80;99.90;;;;;;4974209;28;19922;-78
2022/05/13 00:23:18;;;;;;;15.35;7.28;;;11.90;99.90;;;;;;4974581;28;20098;-79
2022/05/13 00:25:44;;;;;;;19.85;7.15;;;11.80;99.90;;;;;;4973524;28;20061;-79
2022/05/13 00:28:10;;;;;;;15.73;8.70;;;12.30;99.90;;;;;;4974479;28;20050;-79
2022/05/13 00:30:38;;;;;;;;;;;11.90;99.90;;;;;;4974742;28;20046;-79
2022/05/13 00:33:04;;;;;;;19.90;7.45;;;11.90;99.90;;;;;;4974070;28;20021;-79
2022/05/13 00:35:29;;;;;;;14.80;7.05;;;11.70;99.90;;;;;;4974147;28;20050;-80
2022/05/13 00:37:55;;;;;;;15.23;7.07;;;11.70;99.90;;;;;;4974172;28;20054;-79
2022/05/13 00:40:22;;;;;;;19.50;7.53;;;11.90;99.90;;;;;;4974280;28;20053;-80
2022/05/13 00:42:49;;;;;;;18.60;6.65;;;11.80;99.90;;;;;;4974161;28;20102;-79
2022/05/13 00:45:16;;;;;;;18.88;6.70;;;12.10;99.90;;;;;;4956894;28;20121;-78
2022/05/13 00:47:44;;;;;;;18.08;7.35;;;11.80;99.90;;;;;;4974076;28;20067;-79
2022/05/13 00:50:12;;;;;;;14.55;6.50;;;13.30;99.90;;;;;;4974231;28;20070;-80
2022/05/13 00:52:45;;;;;;;15.80;6.60;;;11.70;99.90;;;;;;4973990;28;20130;-78
2022/05/13 00:55:18;;;;;;;16.88;6.55;;;11.70;99.90;;;;;;4974181;28;20129;-79
2022/05/13 00:57:45;;;;;;;17.77;7.13;;;11.70;99.90;;;;;;4973984;28;20582;-79
2022/05/13 01:00:14;;;;;;;19.08;7.28;;;11.70;99.90;;;;;;4956762;28;20142;-79
2022/05/13 01:02:43;;;;;;;16.50;6.43;;;12.00;99.90;;;;;;4974125;28;20054;-80
2022/05/13 01:05:11;;;;;;;14.20;6.50;;;12.60;99.90;;;;;;4973921;28;20130;-78
2022/05/13 01:07:36;;;;;;;22.23;7.40;;;12.00;99.90;;;;;;4956953;28;20050;-79
2022/05/13 01:10:05;;;;;;;20.55;7.30;;;12.00;99.90;;;;;;4973478;28;20104;-79
2022/05/13 01:12:42;;;;;;;12.38;6.40;;;11.90;99.90;;;;;;4973546;28;20054;-79
2022/05/13 01:15:15;;;;;;;12.23;6.18;;;12.50;99.90;;;;;;4972631;28;20051;-78
2022/05/13 01:20:46;;;;;;;14.95;7.07;;;12.00;99.90;;;;;;4973820;28;20050;-80
2022/05/13 01:23:26;;;;;;;16.67;6.57;;;11.90;99.90;;;;;;4973805;28;20043;-80
2022/05/13 01:25:55;;;;;;;16.40;6.70;;;12.30;99.90;;;;;;4973779;28;20047;-79
2022/05/13 01:28:34;;;;;;;18.83;7.10;;;12.20;99.90;;;;;;4973837;28;20046;-78
2022/05/13 01:31:04;;;;;;;17.20;6.78;;;11.70;99.90;;;;;;4973681;28;20118;-80
2022/05/13 01:33:30;;;;;;;19.50;7.03;;;11.70;99.90;;;;;;4956211;28;20454;-76
2022/05/13 01:35:58;;;;;;;15.27;6.70;;;11.80;99.90;;;;;;4973391;28;20038;-78
2022/05/13 01:38:27;;;;;;;13.63;6.38;;;11.40;99.90;;;;;;4959712;28;20392;-80
2022/05/13 01:40:53;;;;;;;15.27;7.28;;;11.80;99.90;;;;;;4977254;28;20082;-78
2022/05/13 01:43:19;;;;;;;18.27;7.03;;;11.80;99.90;;;;;;4977252;28;20085;-78
2022/05/13 01:45:44;;;;;;;18.77;6.80;;;11.60;99.90;;;;;;4960130;28;20149;-76
2022/05/13 01:48:10;;;;;;;15.15;6.40;;;12.70;99.90;;;;;;4959722;28;20058;-79
2022/05/13 01:50:36;;;;;;;;;;;12.70;99.90;;;;;;4977377;28;20085;-77
2022/05/13 01:53:03;;;;;;;18.60;6.90;;;12.60;99.90;;;;;;4976977;28;20362;-77
2022/05/13 01:55:29;;;;;;;14.82;6.72;;;11.70;99.90;;;;;;4977069;28;20104;-75
2022/05/13 01:57:55;;;;;;;19.10;7.85;;;11.70;99.90;;;;;;4976910;28;20130;-76
2022/05/13 02:00:22;;;;;;;17.60;6.35;;;11.60;99.90;;;;;;4959533;28;20059;-78
2022/05/13 02:05:32;;;;;;;19.45;7.18;;;11.40;99.90;;;;;;4976708;28;20505;-76
2022/05/13 02:08:00;;;;;;;15.57;6.85;;;12.40;99.90;;;;;;4944001;28;20035;-77
2022/05/13 02:10:26;;;;;;;21.30;7.45;;;11.60;99.90;;;;;;4976719;28;20082;-77
2022/05/13 02:12:52;;;;;;;18.77;7.07;;;12.00;99.90;;;;;;4976829;28;20051;-77
2022/05/13 02:15:18;;;;;;;19.67;6.80;;;11.70;99.90;;;;;;4976660;28;20065;-79
2022/05/13 02:17:43;;;;;;;18.83;7.43;;;11.70;99.90;;;;;;4943346;28;20145;-77
2022/05/13 02:20:10;;;;;;;25.15;7.47;;;11.80;99.90;;;;;;4976797;28;20053;-75
2022/05/13 02:22:36;;;;;;;20.65;8.02;;;11.70;99.90;;;;;;4976561;28;20063;-77
2022/05/13 02:25:02;;;;;;;24.88;8.07;;;11.60;99.90;;;;;;4976468;28;20070;-78
2022/05/13 02:27:28;;;;;;;22.48;7.53;;;11.60;99.90;;;;;;4976481;28;20077;-76
2022/05/13 02:29:54;;;;;;;26.88;7.70;;;12.90;99.90;;;;;;4976751;28;20046;-76
2022/05/13 02:32:20;;;;;;;21.48;7.90;;;11.60;99.90;;;;;;4976395;28;20121;-77
2022/05/13 02:34:46;;;;;;;22.13;8.18;;;11.50;99.90;;;;;;4976452;28;20054;-78
2022/05/13 02:37:12;;;;;;;25.13;8.02;;;11.90;99.90;;;;;;4976167;28;20061;-79
2022/05/13 02:39:38;;;;;;;25.60;7.72;;;12.00;99.90;;;;;;4976350;28;20380;-78
2022/05/13 02:42:04;;;;;;;22.33;8.43;;;11.60;99.90;;;;;;4976368;28;20089;-78
2022/05/13 02:44:29;;;;;;;;;;;12.00;99.90;;;;;;4976599;28;20128;-77
2022/05/13 02:46:55;;;;;;;27.63;8.05;;;11.60;99.90;;;;;;4975768;28;20394;-76
2022/05/13 02:49:21;;;;;;;33.00;9.50;;;12.00;99.90;;;;;;4974954;28;20058;-79
2022/05/13 02:51:48;;;;;;;32.47;8.05;;;11.80;99.90;;;;;;4975841;28;20514;-78
2022/05/13 02:54:14;;;;;;;28.52;8.77;;;12.00;99.90;;;;;;4975898;28;20058;-75
2022/05/13 02:56:40;;;;;;;31.70;9.35;;;11.70;99.90;;;;;;4975961;28;20057;-76
2022/05/13 02:59:06;;;;;;;22.83;8.07;;;11.80;99.90;;;;;;4975848;28;20399;-77
2022/05/13 03:01:32;;;;;;;35.85;9.13;;;12.90;99.90;;;;;;4958291;28;20422;-76
2022/05/13 03:03:58;;;;;;;;;;;11.80;99.90;;;;;;4976250;28;20442;-76
2022/05/13 03:06:24;;;;;;;26.80;8.60;;;12.50;99.90;;;;;;4975814;28;19926;-75
2022/05/13 03:08:51;;;;;;;27.08;8.70;;;11.70;99.90;;;;;;4975098;28;20483;-76
2022/05/13 03:11:17;;;;;;;21.90;8.48;;;12.10;99.90;;;;;;4975589;28;20502;-75
2022/05/13 03:13:43;;;;;;;32.65;9.57;;;11.90;99.90;;;;;;4958410;28;20047;-76
2022/05/13 03:16:17;;;;;;;27.17;8.95;;;11.80;99.90;;;;;;4975267;28;20129;-74
2022/05/13 03:18:44;;;;;;;38.28;9.75;;;11.60;99.90;;;;;;4958524;28;20063;-76
2022/05/13 03:21:10;;;;;;;29.48;9.02;;;11.90;99.90;;;;;;4958125;28;20129;-78
2022/05/13 03:23:36;;;;;;;;;;;13.00;99.90;;;;;;4975879;28;20064;-76
2022/05/13 03:26:02;;;;;;;29.08;7.95;;;11.60;99.90;;;;;;4975341;28;19925;-76
2022/05/13 03:28:27;;;;;;;35.30;7.95;;;11.70;99.90;;;;;;4958002;28;20109;-76
2022/05/13 03:30:53;;;;;;;34.67;8.65;;;12.70;99.90;;;;;;4975652;28;20055;-76
2022/05/13 03:33:20;;;;;;;31.20;8.02;;;11.90;99.90;;;;;;4957774;28;20043;-77
2022/05/13 03:35:46;;;;;;;26.67;7.97;;;11.90;99.90;;;;;;4957968;28;20561;-77
2022/05/13 03:38:11;;;;;;;29.13;8.40;;;12.80;99.90;;;;;;4958096;28;20051;-77
2022/05/13 03:40:37;;;;;;;29.30;8.70;;;12.10;99.90;;;;;;4975269;28;20055;-75
2022/05/13 03:43:04;;;;;;;25.60;7.35;;;12.40;99.90;;;;;;4957760;28;20053;-77
2022/05/13 03:45:32;;;;;;;26.67;6.18;;;12.00;99.90;;;;;;4975154;28;20050;-76
2022/05/13 03:48:02;;;;;;;25.42;6.97;;;13.50;99.90;;;;;;4974892;28;20070;-75
2022/05/13 03:50:28;;;;;;;37.28;7.95;;;11.90;99.90;;;;;;4957751;28;20134;-76
2022/05/13 03:52:53;;;;;;;28.08;7.20;;;11.80;99.90;;;;;;4975096;28;20129;-76
2022/05/13 03:55:20;;;;;;;27.92;8.07;;;12.40;99.90;;;;;;4974882;28;20129;-77
2022/05/13 03:57:45;;;;;;;25.00;7.00;;;12.10;99.90;;;;;;4974719;28;20047;-77
2022/05/13 04:00:12;;;;;;;24.90;6.85;;;12.30;99.90;;;;;;4974827;28;20784;-76
2022/05/13 04:02:38;;;;;;;32.38;7.43;;;12.20;99.90;;;;;;4957806;28;20055;-75
2022/05/13 04:10:37;;;;;;;26.75;6.70;;;12.00;99.90;;;;;;4973830;28;20421;-78
2022/05/13 04:16:06;;;;;;;24.83;6.22;;;12.30;99.90;;;;;;4974635;28;20142;-79
2022/05/13 04:18:43;;;;;;;26.33;6.20;;;12.40;99.90;;;;;;4974310;28;20082;-79
2022/05/13 04:21:12;;;;;;;27.75;5.60;;;12.30;99.90;;;;;;4974585;28;20396;-77
2022/05/13 04:23:40;;;;;;;19.95;5.53;;;12.30;99.90;;;;;;4957059;28;20051;-78
2022/05/13 04:26:06;;;;;;;18.15;5.70;;;12.10;99.90;;;;;;4974372;28;20051;-77
2022/05/13 04:28:32;;;;;;;21.42;5.00;;;12.30;99.90;;;;;;4974249;28;20058;-79
2022/05/13 04:30:58;;;;;;;19.83;5.30;;;12.40;99.90;;;;;;4974258;28;20546;-79
2022/05/13 04:33:25;;;;;;;25.73;5.63;;;12.40;99.90;;;;;;4956808;28;20053;-77
2022/05/13 04:35:51;;;;;;;22.50;5.22;;;13.10;99.90;;;;;;4957285;28;20050;-78
2022/05/13 04:38:17;;;;;;;;;;;12.20;99.90;;;;;;4974751;28;20058;-77
2022/05/13 04:40:43;;;;;;;19.50;5.28;;;12.00;99.90;;;;;;4974482;28;19930;-78
2022/05/13 04:43:08;;;;;;;15.90;5.10;;;12.30;99.90;;;;;;4973831;28;20043;-76
2022/05/13 04:45:35;;;;;;;19.10;5.50;;;12.20;99.90;;;;;;4957053;28;20051;-76
2022/05/13 04:48:16;;;;;;;21.83;5.13;;;12.00;99.90;;;;;;4973860;28;20153;-77
2022/05/13 04:50:53;;;;;;;19.13;4.75;;;12.40;99.90;;;;;;4973962;28;20050;-78
2022/05/13 04:53:25;;;;;;;14.20;4.93;;;13.80;99.90;;;;;;4973980;28;20043;-77
2022/05/13 04:55:52;;;;;;;16.45;4.70;;;12.40;99.90;;;;;;4973728;28;20050;-78
2022/05/13 04:58:18;;;;;;;18.45;4.55;;;12.00;99.90;;;;;;4974172;28;20051;-76
2022/05/13 05:00:46;;;;;;;14.57;4.22;;;12.30;99.90;;;;;;4956609;28;20069;-79
2022/05/13 05:03:12;;;;;;;15.35;4.22;;;13.50;99.90;;;;;;4973847;28;20141;-78
2022/05/13 05:05:38;;;;;;;14.85;4.05;;;12.30;99.90;;;;;;4974153;28;20043;-77
2022/05/13 05:08:04;;;;;;;14.82;4.47;;;12.30;99.90;;;;;;4973832;28;20098;-80
2022/05/13 05:10:30;;;;;;;15.88;4.65;;;12.50;99.90;;;;;;4956521;28;20050;-79
2022/05/13 05:12:57;;;;;;;11.75;3.88;;;12.50;99.90;;;;;;4976494;28;20035;-78
2022/05/13 05:15:23;;;;;;;9.57;3.70;;;12.50;99.90;;;;;;4978016;28;20077;-77
2022/05/13 05:17:50;;;;;;;12.88;4.03;;;12.50;99.90;;;;;;4977637;28;20356;-79
2022/05/13 05:20:16;;;;;;;;;;;12.50;99.90;;;;;;4961061;28;20043;-77
2022/05/13 05:22:46;;;;;;;14.95;4.40;;;12.20;99.90;;;;;;4977578;28;19922;-77
2022/05/13 05:25:14;;;;;;;11.30;4.13;;;12.40;99.90;;;;;;4977369;28;20562;-79
2022/05/13 05:27:41;;;;;;;12.70;4.25;;;12.40;99.90;;;;;;4977651;28;20055;-80
2022/05/13 05:30:08;;;;;;;14.85;3.60;;;12.70;99.90;;;;;;4977486;28;20051;-78
2022/05/13 05:32:36;;;;;;;12.15;3.45;;;12.70;99.90;;;;;;4960267;28;20402;-79
2022/05/13 05:35:01;;;;;;;12.70;3.42;;;12.50;99.90;;;;;;4977496;28;20049;-78
2022/05/13 05:37:27;;;;;;;18.83;3.97;;;12.40;99.90;;;;;;4960275;28;20055;-79
2022/05/13 05:39:53;;;;;;;16.70;3.65;;;12.50;99.90;;;;;;4977200;28;20051;-76
2022/05/13 05:42:18;;;;;;;11.77;3.20;;;12.50;99.90;;;;;;4977394;28;20046;-78
2022/05/13 05:44:44;;;;;;;11.65;3.15;;;13.30;99.90;;;;;;4960114;28;20046;-78
2022/05/13 05:47:10;;;;;;;10.05;2.88;;;12.70;99.90;;;;;;4975687;28;20090;-73
2022/05/13 05:49:36;;;;;;;9.25;2.97;;;12.50;99.90;;;;;;4977215;28;20050;-74
2022/05/13 05:52:01;;;;;;;13.32;3.15;;;12.30;99.90;;;;;;4975713;28;20054;-77
2022/05/13 05:57:15;;;;;;;10.55;2.95;;;12.70;99.90;;;;;;4977013;28;20406;-77
2022/05/13 05:59:46;;;;;;;13.30;3.50;;;12.50;99.90;;;;;;4977074;28;20097;-75
2022/05/13 06:02:12;;;;;;;12.35;3.33;;;12.80;99.90;;;;;;4976834;28;20057;-76
2022/05/13 06:04:39;;;;;;;11.50;2.83;;;12.90;99.90;;;;;;4976789;28;20057;-73
2022/05/13 06:07:07;;;;;;;12.60;3.40;;;12.90;99.90;;;;;;4976713;28;20070;-75
2022/05/13 06:09:33;;;;;;;10.43;3.17;;;12.50;99.90;;;;;;4959558;28;20092;-79
2022/05/13 06:12:00;;;;;;;15.20;3.33;;;12.80;99.90;;;;;;4976709;28;20554;-78
2022/05/13 06:14:27;;;;;;;13.55;3.15;;;13.30;99.90;;;;;;4976408;28;20070;-76
2022/05/13 06:16:53;;;;;;;12.38;3.53;;;13.00;99.90;;;;;;4976404;28;20047;-77
2022/05/13 06:19:19;;;;;;;9.95;3.20;;;12.80;99.90;;;;;;4968978;28;20475;-74
2022/05/13 06:21:45;;;;;;;11.30;3.38;;;12.90;99.90;;;;;;4974744;28;20098;-74
2022/05/13 06:24:11;;;;;;;11.50;3.45;;;12.90;99.90;;;;;;4975192;28;20050;-78
2022/05/13 06:26:37;;;;;;;11.73;3.20;;;13.00;99.90;;;;;;4957238;28;20058;-71
2022/05/13 06:29:05;;;;;;;;;;;13.00;99.90;;;;;;4975489;28;20640;-75
2022/05/13 06:31:31;;;;;;;13.55;3.55;;;13.30;99.90;;;;;;4975264;28;19973;-73
2022/05/13 06:33:56;;;;;;;13.88;3.20;;;13.30;99.90;;;;;;4974871;28;20050;-77
2022/05/13 06:36:22;;;;;;;13.50;3.78;;;13.20;99.90;;;;;;4956966;28;20086;-75
2022/05/13 06:38:48;;;;;;;10.55;3.08;;;13.30;99.90;;;;;;4975008;28;20411;-75
2022/05/13 06:41:14;;;;;;;9.38;2.95;;;13.30;99.90;;;;;;4957253;28;20533;-78
2022/05/13 06:43:40;;;;;;;14.85;2.78;;;13.50;99.90;;;;;;4974960;28;20042;-77
2022/05/13 06:46:05;;;;;;;18.13;3.35;;;14.60;99.90;;;;;;4974373;28;20052;-73
2022/05/13 06:48:31;;;;;;;7.78;2.63;;;13.50;99.90;;;;;;4974144;28;20055;-78
2022/05/13 06:50:57;;;;;;;13.02;3.00;;;13.30;99.90;;;;;;4973346;28;20522;-75
2022/05/13 06:53:23;;;;;;;10.20;3.08;;;13.50;99.90;;;;;;4974935;28;20551;-70
2022/05/13 06:55:49;;;;;;;;;;;13.50;99.90;;;;;;4974058;28;20042;-74
2022/05/13 06:58:16;;;;;;;16.83;2.90;;;13.30;99.90;;;;;;4974551;28;20374;-76
2022/05/13 07:00:43;;;;;;;9.38;3.03;;;13.40;99.90;;;;;;4974649;28;20451;-75
2022/05/13 07:03:17;;;;;;;9.07;2.95;;;13.60;99.90;;;;;;4956730;28;20053;-71
2022/05/13 07:05:44;;;;;;;10.98;2.95;;;13.70;99.90;;;;;;4973811;28;20059;-72
2022/05/13 07:08:10;;;;;;;13.60;4.00;;;13.20;99.90;;;;;;4974540;28;20055;-73
2022/05/13 07:10:39;;;;;;;10.80;3.00;;;13.70;99.90;;;;;;4973759;28;20415;-73
2022/05/13 07:13:06;;;;;;;10.38;2.55;;;13.80;99.90;;;;;;4974596;28;20055;-72
2022/05/13 07:15:32;;;;;;;11.48;2.88;;;14.20;99.90;;;;;;4973513;28;20082;-70
2022/05/13 07:17:58;;;;;;;11.00;2.72;;;13.80;99.90;;;;;;4972522;28;20054;-74
2022/05/13 07:20:26;;;;;;;7.25;2.28;;;13.70;99.90;;;;;;4957190;28;20600;-70
2022/05/13 07:22:53;;;;;;;12.15;2.53;;;13.50;99.90;;;;;;4974276;28;20136;-70
2022/05/13 07:25:19;;;;;;;11.73;3.08;;;13.60;99.90;;;;;;4973753;28;20051;-71
2022/05/13 07:27:45;;;;;;;;;;;11.80;99.90;;;;;;4973755;28;20050;-74
2022/05/13 07:30:12;;;;;;;12.57;2.60;;;14.10;99.90;;;;;;4974301;28;19929;-73
2022/05/13 07:32:37;;;;;;;7.68;2.92;;;14.20;99.90;;;;;;4977263;28;20051;-81
2022/05/13 07:35:05;;;;;;;15.35;2.97;;;14.30;99.90;;;;;;4980667;28;20062;-72
2022/05/13 07:37:30;;;;;;;13.75;2.45;;;14.40;99.90;;;;;;4980916;28;20062;-73
2022/05/13 07:42:40;;;;;;;9.90;2.40;;;14.40;99.90;;;;;;4983208;28;20574;-71
2022/05/13 07:45:07;;;;;;;10.18;2.25;;;14.10;99.90;;;;;;4973839;28;20047;-78
2022/05/13 07:47:33;;;;;;;10.35;2.40;;;14.00;99.90;;;;;;4973001;28;20372;-76
2022/05/13 07:49:59;;;;;;;14.57;2.58;;;14.10;99.90;;;;;;4973750;28;20054;-73
2022/05/13 07:52:26;;;;;;;9.48;2.63;;;14.40;99.90;;;;;;4956284;28;20105;-73
2022/05/13 07:54:52;;;;;;;11.18;3.60;;;14.00;99.90;;;;;;4973423;28;20059;-71
2022/05/13 07:57:18;;;;;;;;;;;14.40;99.90;;;;;;4973807;28;20069;-75
2022/05/13 08:02:27;;;;;;;8.68;2.60;;;13.80;99.90;;;;;;4970727;28;20403;-71
2022/05/13 08:04:53;;;;;;;10.93;2.95;;;14.00;99.90;;;;;;4956417;28;20047;-77
2022/05/13 08:07:19;;;;;;;8.07;2.90;;;14.20;99.90;;;;;;4973148;28;20121;-72
2022/05/13 08:09:44;;;;;;;;;;;13.90;99.90;;;;;;4973517;28;20050;-75
2022/05/13 08:12:10;;;;;;;9.15;2.42;;;13.80;99.90;;;;;;4973075;28;19926;-76
2022/05/13 08:14:36;;;;;;;9.35;2.65;;;14.00;99.90;;;;;;4956252;28;20047;-75
2022/05/13 08:17:03;;;;;;;11.00;3.10;;;13.80;99.90;;;;;;4972253;28;20051;-80
2022/05/13 08:19:29;;;;;;;;;;;14.10;99.90;;;;;;4956327;28;20043;-78
2022/05/13 08:21:54;;;;;;;13.77;2.60;;;14.70;99.90;;;;;;4973503;28;19969;-74
2022/05/13 08:24:20;;;;;;;14.32;3.05;;;14.70;99.90;;;;;;4972463;28;20129;-78
2022/05/13 08:26:46;;;;;;;11.85;3.60;;;15.10;99.90;;;;;;4972346;28;20062;-75
2022/05/13 08:29:11;;;;;;;;;;;14.40;99.90;;;;;;4973457;28;20574;-74
2022/05/13 08:31:37;;;;;;;6.13;2.22;;;14.40;99.90;;;;;;4972491;28;19921;-80
2022/05/13 08:34:03;;;;;;;14.75;2.85;;;15.50;99.90;;;;;;4973485;28;20093;-72
2022/05/13 08:36:28;;;;;;;13.18;2.65;;;14.60;99.90;;;;;;4955062;28;20131;-76
2022/05/13 08:38:54;;;;;;;14.32;2.75;;;14.50;99.90;;;;;;4973116;28;20487;-78
2022/05/13 08:41:20;;;;;;;;;;;14.50;99.90;;;;;;4955371;28;20137;-76
2022/05/13 08:43:56;;;;;;;8.20;2.17;;;14.40;99.90;;;;;;4969606;28;19926;-72
2022/05/13 08:46:33;;;;;;;8.05;2.78;;;14.60;99.90;;;;;;4971896;28;20047;-74
2022/05/13 08:49:07;;;;;;;13.13;2.97;;;14.60;99.90;;;;;;4975397;28;20078;-70
2022/05/13 08:53:06;;;;;;;8.13;2.30;;;15.20;99.90;;;;;;4979219;28;20175;-72
2022/05/13 08:54:58;;;;;;;7.38;2.40;;;14.80;99.90;;;;;;4962607;28;20062;-72
2022/05/13 08:57:27;;;;;;;6.82;2.40;;;14.80;99.90;;;;;;4972114;28;20065;-73
2022/05/13 09:00:13;;;;;;;6.05;2.13;;;15.30;99.90;;;;;;4976138;28;20050;-74
2022/05/13 09:02:46;;;;;;;8.43;2.30;;;15.60;99.90;;;;;;4976499;28;20046;-71
2022/05/13 09:05:39;;;;;;;9.73;2.20;;;14.90;99.90;;;;;;4977037;28;20078;-71
2022/05/13 09:08:06;;;;;;;7.20;2.20;;;14.90;99.90;;;;;;4957108;28;20058;-76
2022/05/13 09:10:39;;;;;;;7.13;2.00;;;15.50;99.90;;;;;;4974139;28;20043;-74
2022/05/13 09:13:26;;;;;;;9.90;2.88;;;15.10;99.90;;;;;;4973750;28;20043;-73
2022/05/13 09:15:55;;;;;;;12.52;2.38;;;15.60;99.90;;;;;;4973653;28;20054;-74
2022/05/13 09:18:34;;;;;;;10.00;2.58;;;15.40;99.90;;;;;;4973955;28;20054;-75
2022/05/13 09:21:03;;;;;;;8.13;2.20;;;15.10;99.90;;;;;;4973787;28;20050;-80
2022/05/13 09:23:30;;;;;;;8.88;2.30;;;15.10;99.90;;;;;;4974180;28;20035;-77
2022/05/13 09:26:19;;;;;;;9.18;2.58;;;15.20;99.90;;;;;;4976719;28;20055;-78
2022/05/13 09:29:10;;;;;;;8.32;2.15;;;15.10;99.90;;;;;;4963294;28;20050;-79
2022/05/13 09:31:46;;;;;;;11.73;2.45;;;14.90;99.90;;;;;;4977884;28;20125;-75
2022/05/13 09:34:16;;;;;;;8.15;2.42;;;14.60;99.90;;;;;;4977244;28;20049;-74
2022/05/13 09:36:41;;;;;;;8.45;2.50;;;14.70;99.90;;;;;;4976042;28;20533;-78
2022/05/13 09:39:20;;;;;;;9.75;3.00;;;14.80;99.90;;;;;;4957728;28;20051;-78
2022/05/13 09:41:46;;;;;;;8.45;2.70;;;15.80;99.90;;;;;;4973720;28;20516;-74
2022/05/13 09:44:18;;;;;;;12.68;3.15;;;14.70;99.90;;;;;;4940201;28;20121;-74
2022/05/13 09:46:47;;;;;;;10.88;2.83;;;15.00;99.90;;;;;;4940350;28;20062;-79
2022/05/13 09:49:33;;;;;;;9.10;2.78;;;15.10;99.90;;;;;;4973061;28;20067;-78
2022/05/13 09:52:07;;;;;;;7.30;2.30;;;15.50;99.90;;;;;;4973595;28;20051;-80
2022/05/13 09:54:35;;;;;;;11.85;3.10;;;15.10;99.90;;;;;;4973533;28;20046;-72
2022/05/13 09:57:08;;;;;;;12.27;2.55;;;15.30;99.90;;;;;;4973360;28;20093;-72
2022/05/13 09:59:40;;;;;;;12.82;2.72;;;15.60;99.90;;;;;;4956882;29;20069;-75
2022/05/13 10:02:36;;;;;;;8.52;2.33;;;15.20;99.90;;;;;;4940497;29;20036;-75
2022/05/13 10:05:24;;;;;;;11.32;2.70;;;16.00;99.90;;;;;;4955726;29;20531;-73
2022/05/13 10:07:49;;;;;;;11.85;4.07;;;15.80;99.90;;;;;;4957563;29;20379;-74
2022/05/13 10:16:27;;;;;;;12.20;2.58;;;16.20;99.90;;;;;;4957291;29;20051;-72
2022/05/13 10:19:22;;;;;;;11.70;2.75;;;16.20;99.90;;;;;;4957315;29;20531;-77
2022/05/13 10:22:05;;;;;;;9.02;2.80;;;15.70;99.90;;;;;;4957405;29;20140;-78
2022/05/13 10:24:39;;;;;;;9.57;2.85;;;15.70;99.90;;;;;;4940404;29;20474;-71
2022/05/13 10:27:10;;;;;;;10.63;2.70;;;16.50;99.90;;;;;;4957400;29;20543;-72
2022/05/13 10:29:48;;;;;;;12.43;3.05;;;16.10;99.90;;;;;;4957393;29;20137;-74
2022/05/13 10:32:26;;;;;;;13.05;3.30;;;16.50;99.90;;;;;;4957156;29;20055;-74
2022/05/13 10:34:55;;;;;;;10.70;2.92;;;16.20;99.90;;;;;;4957416;29;20074;-73
2022/05/13 10:37:28;;;;;;;11.23;2.40;;;15.90;99.90;;;;;;4944245;29;20518;-70
2022/05/13 10:40:01;;;;;;;10.52;2.38;;;16.20;99.90;;;;;;4963852;29;20051;-71
2022/05/13 10:42:54;;;;;;;10.00;3.05;;;16.00;99.90;;;;;;4963449;29;20121;-76
2022/05/13 10:45:25;;;;;;;8.57;3.15;;;16.00;99.90;;;;;;4962594;29;20547;-72
2022/05/13 10:48:32;;;;;;;12.63;2.83;;;16.40;99.90;;;;;;4944710;29;20463;-73
2022/05/13 10:51:28;;;;;;;18.63;2.92;;;16.00;99.90;;;;;;4958072;29;20534;-75
2022/05/13 10:54:12;;;;;;;12.18;3.35;;;15.60;99.90;;;;;;4957474;29;20051;-75
2022/05/13 10:56:59;;;;;;;15.73;3.50;;;15.50;99.90;;;;;;4957025;29;20043;-72
2022/05/13 10:59:28;;;;;;;9.00;3.10;;;15.40;99.90;;;;;;4956948;29;20047;-75
2022/05/13 11:02:30;;;;;;;10.90;3.10;;;15.60;99.90;;;;;;4939691;29;20163;-71
2022/05/13 11:05:14;;;;;;;9.50;2.78;;;15.80;99.90;;;;;;4956554;29;20047;-75
2022/05/13 11:08:02;;;;;;;12.43;3.03;;;16.10;99.90;;;;;;4956391;29;20043;-71
2022/05/13 11:10:50;;;;;;;14.02;2.75;;;15.60;99.90;;;;;;4955568;28;20062;-77
2022/05/13 11:13:37;;;;;;;11.77;3.38;;;15.30;99.90;;;;;;4955190;29;20051;-73
2022/05/13 11:16:17;;;;;;;11.02;3.00;;;15.50;99.90;;;;;;4956513;29;20047;-70
2022/05/13 11:18:52;;;;;;;10.98;3.00;;;15.30;99.90;;;;;;4956291;29;20109;-77
2022/05/13 11:21:47;;;;;;;8.80;2.70;;;15.80;99.90;;;;;;4956239;29;20105;-72
2022/05/13 11:27:36;;;;;;;10.52;3.20;;;15.80;99.90;;;;;;4939310;29;20058;-71
2022/05/13 11:30:07;;;;;;;13.45;3.33;;;15.60;99.90;;;;;;4956201;29;20043;-72
2022/05/13 11:32:38;;;;;;;14.77;3.20;;;15.50;99.90;;;;;;4955838;29;20036;-76
2022/05/13 11:35:37;;;;;;;7.70;2.90;;;15.60;99.90;;;;;;4955898;29;20110;-76
2022/05/13 11:38:16;;;;;;;8.30;2.38;;;15.60;99.90;;;;;;4955811;29;20639;-70
2022/05/13 11:40:59;;;;;;;14.90;3.47;;;15.60;99.90;;;;;;4962531;28;20463;-74
2022/05/13 11:43:52;;;;;;;13.25;3.60;;;15.60;99.90;;;;;;4971276;28;20487;-78
2022/05/13 11:46:44;;;;;;;15.27;3.00;;;15.70;99.90;;;;;;4957566;28;20054;-74
2022/05/13 11:49:32;;;;;;;8.45;2.75;;;15.90;99.90;;;;;;4980433;28;20082;-77
2022/05/13 11:52:30;;;;;;;8.32;2.70;;;16.10;99.90;;;;;;4982204;28;20058;-78
2022/05/13 11:55:47;;;;;;;8.10;2.40;;;16.10;99.90;;;;;;4959937;28;20107;-82
2022/05/13 11:58:47;;;;;;;10.13;3.15;;;14.90;99.90;;;;;;4976783;28;20126;-76
2022/05/13 12:01:14;;;;;;;11.82;2.85;;;15.30;99.90;;;;;;4975152;28;20774;-78
2022/05/13 12:03:40;;;;;;;10.70;2.90;;;15.50;99.90;;;;;;4974784;28;20050;-80
2022/05/13 12:06:10;;;;;;;;;;;15.50;99.90;;;;;;4973634;28;20104;-72
2022/05/13 12:08:44;;;;;;;15.40;2.70;;;15.80;99.90;;;;;;4957133;28;20012;-77
2022/05/13 12:11:15;;;;;;;8.48;2.50;;;15.60;99.90;;;;;;4974437;28;20054;-73
2022/05/13 12:14:00;;;;;;;10.65;2.75;;;15.70;99.90;;;;;;4974119;28;20042;-73
2022/05/13 12:16:52;;;;;;;18.13;3.60;;;15.60;99.90;;;;;;4957249;28;20054;-74
2022/05/13 12:19:27;;;;;;;7.20;2.40;;;15.60;99.90;;;;;;4974236;28;20372;-74
2022/05/13 12:22:23;;;;;;;16.17;2.90;;;15.50;99.90;;;;;;4973992;28;20510;-74
2022/05/13 12:25:35;;;;;;;12.20;3.15;;;16.10;99.90;;;;;;4974599;28;20141;-77
2022/05/13 12:28:22;;;;;;;11.75;2.80;;;16.20;99.90;;;;;;4956634;28;20043;-74
2022/05/13 12:30:52;;;;;;;11.52;2.88;;;16.30;99.90;;;;;;4973887;28;20089;-74
2022/05/13 12:33:20;;;;;;;10.80;3.22;;;16.40;99.90;;;;;;4974101;28;20490;-73
2022/05/13 12:39:12;;;;;;;13.60;3.50;;;16.00;99.90;;;;;;4973937;28;20509;-72
2022/05/13 12:41:44;;;;;;;11.77;3.75;;;16.00;99.90;;;;;;4956634;28;20046;-72
2022/05/13 12:44:30;;;;;;;11.95;2.88;;;15.90;99.90;;;;;;4974065;28;20058;-75
2022/05/13 12:47:15;;;;;;;10.85;3.45;;;15.70;99.90;;;;;;4956826;28;20462;-79
2022/05/13 12:50:00;;;;;;;13.57;3.22;;;16.10;99.90;;;;;;4973686;28;20055;-76
2022/05/13 12:52:32;;;;;;;13.73;3.30;;;15.40;99.90;;;;;;4974000;28;20113;-72
2022/05/13 12:55:10;;;;;;;12.13;3.70;;;15.70;99.90;;;;;;4973865;28;20089;-77
2022/05/13 12:57:49;;;;;;;7.90;2.63;;;15.70;99.90;;;;;;4973623;28;20511;-73
2022/05/13 13:00:30;;;;;;;11.02;2.85;;;15.80;99.90;;;;;;4973780;28;20494;-73
2022/05/13 13:02:58;;;;;;;8.98;2.90;;;15.60;99.90;;;;;;4973627;28;20046;-76
2022/05/13 13:05:30;;;;;;;10.05;2.97;;;17.10;99.90;;;;;;4973715;28;20410;-76
2022/05/13 13:08:14;;;;;;;14.95;3.17;;;15.70;99.90;;;;;;4973589;28;20050;-73
2022/05/13 13:10:56;;;;;;;10.75;2.78;;;15.30;99.90;;;;;;4956746;28;20136;-74
2022/05/13 13:13:34;;;;;;;17.05;3.85;;;15.40;99.90;;;;;;4973612;28;20034;-77
2022/05/13 13:16:05;;;;;;;15.05;2.90;;;15.40;99.90;;;;;;4973749;28;20086;-79
2022/05/13 13:18:33;;;;;;;17.65;3.38;;;15.60;99.90;;;;;;4973409;28;20081;-79
2022/05/13 13:21:09;;;;;;;13.98;2.92;;;15.00;99.90;;;;;;4973345;28;20491;-73
2022/05/13 13:23:43;;;;;;;13.63;3.00;;;15.70;99.90;;;;;;4973840;28;20046;-71
2022/05/13 13:26:13;;;;;;;14.23;3.67;;;15.70;99.90;;;;;;4972285;28;20055;-77
2022/05/13 13:28:40;;;;;;;11.48;3.00;;;15.80;99.90;;;;;;4939479;28;20053;-73
2022/05/13 13:31:12;;;;;;;9.25;2.80;;;15.80;99.90;;;;;;4973354;28;20091;-72
2022/05/13 13:33:48;;;;;;;11.95;3.15;;;16.00;99.90;;;;;;4975478;28;20092;-72
2022/05/13 13:36:18;;;;;;;7.75;2.42;;;16.20;99.90;;;;;;4960280;28;20050;-77
2022/05/13 13:38:52;;;;;;;12.55;2.83;;;16.30;99.90;;;;;;4977613;28;20093;-75